Time;durP1;ratioP1;P1;durP2;ratioP2;P2;SDS_P1;SDS_P2;PMS_P1;PMS_P2;Temp;Humidity;BMP_temperature;BMP_pressure;BME280_temperature;BME280_humidity;BME280_pressure;Samples;Min_cycle;Max_cycle;Signal;HPM_P1;HPM_P2
2023/06/08 00:02:25;;;;;;;14.67;12.70;;;17.60;99.90;;;;;;5120286;28;20557;-58
2023/06/08 00:04:54;;;;;;;15.40;12.90;;;17.60;73.20;;;;;;5121048;28;20463;-59
2023/06/08 00:07:24;;;;;;;14.20;12.70;;;17.50;99.90;;;;;;5121023;28;20463;-58
2023/06/08 00:09:52;;;;;;;15.37;13.87;;;17.50;5.90;;;;;;5121109;28;20455;-58
2023/06/08 00:12:19;;;;;;;15.40;13.90;;;17.30;9.60;;;;;;5121005;28;20553;-58
2023/06/08 00:14:47;;;;;;;14.57;13.17;;;17.30;1.00;;;;;;5120999;28;20467;-58
2023/06/08 00:17:14;;;;;;;14.27;12.97;;;17.20;1.00;;;;;;5120531;28;20466;-58
2023/06/08 00:19:43;;;;;;;16.00;14.10;;;17.10;1.00;;;;;;5120845;28;20463;-59
2023/06/08 00:22:12;;;;;;;13.73;12.50;;;17.10;1.00;;;;;;5120636;28;20813;-59
2023/06/08 00:24:40;;;;;;;15.80;14.20;;;17.10;99.90;;;;;;5119752;28;20487;-58
2023/06/08 00:27:07;;;;;;;15.23;13.40;;;17.00;99.90;;;;;;5120763;28;20460;-58
2023/06/08 00:29:35;;;;;;;16.60;14.10;;;17.00;1.00;;;;;;5120760;28;20903;-58
2023/06/08 00:32:02;;;;;;;15.50;13.90;;;17.00;1.00;;;;;;5119941;28;20953;-58
2023/06/08 00:34:29;;;;;;;15.77;14.30;;;16.90;99.90;;;;;;5119837;28;20455;-58
2023/06/08 00:36:56;;;;;;;15.80;14.30;;;16.90;1.00;;;;;;5120231;28;20502;-58
2023/06/08 00:39:25;;;;;;;15.43;13.93;;;16.80;99.90;;;;;;5120447;28;20468;-58
2023/06/08 00:41:52;;;;;;;15.57;14.07;;;16.80;1.00;;;;;;5120597;28;20456;-58
2023/06/08 00:44:19;;;;;;;18.43;15.33;;;16.70;1.00;;;;;;5120584;28;20502;-58
2023/06/08 00:46:48;;;;;;;16.17;14.50;;;16.70;99.90;;;;;;5120085;28;20466;-58
2023/06/08 00:49:17;;;;;;;16.70;15.13;;;16.70;99.90;;;;;;5119901;28;20469;-58
2023/06/08 00:51:45;;;;;;;17.77;14.90;;;16.60;99.90;;;;;;5120491;28;20488;-58
2023/06/08 00:54:14;;;;;;;15.50;13.90;;;16.60;1.00;;;;;;5120258;28;20740;-58
2023/06/08 00:56:48;;;;;;;16.83;15.23;;;16.60;1.00;;;;;;5119846;27;20463;-59
2023/06/08 00:59:15;;;;;;;17.77;16.07;;;16.50;99.90;;;;;;5119198;28;20472;-58
2023/06/08 01:01:42;;;;;;;17.70;16.00;;;16.50;1.00;;;;;;5119466;28;20920;-58
2023/06/08 01:04:11;;;;;;;16.67;14.90;;;16.40;99.90;;;;;;5120089;28;20466;-57
2023/06/08 01:06:45;;;;;;;16.13;14.77;;;16.40;31.70;;;;;;5119762;28;20464;-59
2023/06/08 01:09:21;;;;;;;20.23;15.23;;;16.40;99.90;;;;;;5119883;28;20888;-58
2023/06/08 01:12:00;;;;;;;17.80;16.10;;;16.30;1.00;;;;;;5119783;28;20586;-57
2023/06/08 01:14:38;;;;;;;18.33;16.20;;;16.20;99.90;;;;;;5119189;28;20952;-58
2023/06/08 01:17:23;;;;;;;18.73;15.50;;;16.20;1.00;;;;;;5119442;28;20467;-58
2023/06/08 01:20:07;;;;;;;17.63;15.73;;;16.10;35.40;;;;;;5119646;28;20765;-58
2023/06/08 01:23:09;;;;;;;20.40;16.07;;;16.10;1.00;;;;;;5119196;28;20463;-58
2023/06/08 01:25:40;;;;;;;20.97;16.03;;;16.10;99.90;;;;;;5119461;28;20550;-58
2023/06/08 01:28:13;;;;;;;24.30;16.07;;;16.10;1.00;;;;;;5119807;28;20459;-58
2023/06/08 01:30:41;;;;;;;17.80;15.60;;;16.00;97.90;;;;;;5118809;28;20586;-59
2023/06/08 01:33:11;;;;;;;18.43;15.53;;;16.00;65.50;;;;;;5119347;28;20798;-59
2023/06/08 01:35:38;;;;;;;20.30;15.80;;;16.00;99.90;;;;;;5119137;28;20894;-58
2023/06/08 01:38:13;;;;;;;18.60;16.60;;;16.00;99.90;;;;;;5119523;28;20459;-58
2023/06/08 01:40:46;;;;;;;17.40;15.73;;;15.90;1.00;;;;;;5119270;28;20906;-58
2023/06/08 01:43:14;;;;;;;19.17;16.00;;;15.90;99.90;;;;;;5118913;28;20461;-58
2023/06/08 01:45:46;;;;;;;19.33;15.37;;;15.90;1.00;;;;;;5118157;28;20561;-59
2023/06/08 01:48:15;;;;;;;17.30;15.20;;;15.90;99.90;;;;;;5103115;28;20471;-59
2023/06/08 01:50:44;;;;;;;18.57;16.67;;;15.90;99.90;;;;;;5097613;28;20495;-58
2023/06/08 01:53:12;;;;;;;18.33;16.40;;;15.90;1.00;;;;;;5098508;28;20813;-59
2023/06/08 01:55:39;;;;;;;20.90;16.00;;;15.90;99.90;;;;;;5098643;28;20473;-58
2023/06/08 01:58:07;;;;;;;20.20;16.27;;;15.70;48.40;;;;;;5098090;28;20461;-58
2023/06/08 02:00:35;;;;;;;17.73;15.97;;;15.70;99.90;;;;;;5097641;28;20559;-58
2023/06/08 02:03:02;;;;;;;20.10;15.53;;;15.60;7.60;;;;;;5098326;28;20495;-58
2023/06/08 02:05:29;;;;;;;18.07;16.30;;;15.60;99.90;;;;;;5098348;28;20489;-61
2023/06/08 02:07:56;;;;;;;18.50;16.47;;;15.60;1.00;;;;;;5117388;28;20926;-58
2023/06/08 02:10:24;;;;;;;18.00;16.17;;;15.50;1.00;;;;;;5107542;27;20862;-58
2023/06/08 02:12:52;;;;;;;17.60;15.80;;;15.50;1.00;;;;;;5097573;28;20460;-59
2023/06/08 02:15:20;;;;;;;18.00;16.17;;;15.40;1.00;;;;;;5097197;28;20513;-58
2023/06/08 02:17:47;;;;;;;20.93;14.90;;;15.40;99.90;;;;;;5102712;28;20456;-59
2023/06/08 02:20:14;;;;;;;19.30;16.30;;;15.40;1.00;;;;;;5118031;28;20459;-58
2023/06/08 02:22:42;;;;;;;17.80;15.80;;;15.40;99.90;;;;;;5118495;28;20545;-59
2023/06/08 02:25:10;;;;;;;19.17;16.20;;;15.30;1.00;;;;;;5118629;28;20754;-58
2023/06/08 02:27:37;;;;;;;16.47;14.77;;;15.30;1.00;;;;;;5117958;28;20520;-58
2023/06/08 02:30:07;;;;;;;18.43;16.60;;;15.30;1.00;;;;;;5117889;28;20465;-58
2023/06/08 02:32:35;;;;;;;19.20;15.97;;;15.30;1.00;;;;;;5117925;28;20492;-59
2023/06/08 02:35:03;;;;;;;19.13;15.70;;;15.20;99.90;;;;;;5118070;28;20460;-58
2023/06/08 02:37:30;;;;;;;18.50;16.33;;;15.20;1.00;;;;;;5117416;28;20459;-58
2023/06/08 02:39:58;;;;;;;18.40;14.83;;;15.20;1.00;;;;;;5117589;28;20510;-58
2023/06/08 02:42:25;;;;;;;18.40;16.50;;;15.20;1.00;;;;;;5117935;28;20455;-58
2023/06/08 02:44:52;;;;;;;19.50;16.40;;;15.10;99.90;;;;;;5117933;28;20470;-58
2023/06/08 02:47:20;;;;;;;23.23;17.00;;;15.00;1.00;;;;;;5118213;28;20455;-59
2023/06/08 02:49:48;;;;;;;17.30;15.60;;;15.00;1.00;;;;;;5117912;28;20973;-58
2023/06/08 02:52:15;;;;;;;18.37;15.53;;;15.00;99.90;;;;;;5117635;28;20544;-59
2023/06/08 02:54:43;;;;;;;19.07;16.97;;;14.90;1.00;;;;;;5117688;28;20497;-59
2023/06/08 02:57:10;;;;;;;19.00;16.77;;;15.00;99.90;;;;;;5117246;28;20455;-59
2023/06/08 02:59:37;;;;;;;18.20;16.00;;;15.00;99.90;;;;;;5116855;28;20558;-59
2023/06/08 03:02:05;;;;;;;18.03;16.13;;;14.90;99.90;;;;;;5116438;28;20490;-59
2023/06/08 03:04:32;;;;;;;21.43;16.83;;;14.90;1.00;;;;;;5116954;28;20817;-59
2023/06/08 03:07:01;;;;;;;19.70;16.80;;;14.80;1.00;;;;;;5116960;28;20472;-59
2023/06/08 03:09:29;;;;;;;20.00;16.90;;;14.80;1.00;;;;;;5116506;28;20467;-58
2023/06/08 03:11:57;;;;;;;19.00;17.10;;;14.80;99.90;;;;;;5117650;28;20491;-59
2023/06/08 03:14:28;;;;;;;20.07;17.13;;;14.80;1.00;;;;;;5116495;28;20619;-59
2023/06/08 03:17:01;;;;;;;18.73;16.90;;;14.70;1.00;;;;;;5115189;28;20459;-59
2023/06/08 03:19:30;;;;;;;28.50;17.50;;;14.70;99.90;;;;;;5115843;28;20787;-58
2023/06/08 03:21:58;;;;;;;20.37;18.47;;;14.70;1.00;;;;;;5119514;28;20899;-58
2023/06/08 03:24:28;;;;;;;19.50;17.47;;;14.70;99.90;;;;;;5119908;28;20721;-59
2023/06/08 03:26:56;;;;;;;20.23;17.70;;;14.70;99.90;;;;;;5120301;28;20459;-58
2023/06/08 03:29:24;;;;;;;27.20;17.63;;;14.60;1.00;;;;;;5120536;28;20516;-59
2023/06/08 03:31:51;;;;;;;21.47;18.80;;;14.60;1.00;;;;;;5121407;28;20784;-59
2023/06/08 03:34:18;;;;;;;23.10;18.07;;;14.60;1.00;;;;;;5121794;28;20558;-59
2023/06/08 03:36:45;;;;;;;22.70;17.63;;;14.60;99.90;;;;;;5121548;28;20456;-59
2023/06/08 03:39:12;;;;;;;23.67;17.60;;;14.60;99.90;;;;;;5121798;28;20754;-59
2023/06/08 03:41:41;;;;;;;19.03;17.20;;;14.60;99.90;;;;;;5121195;28;20456;-58
2023/06/08 03:44:08;;;;;;;22.80;17.47;;;14.50;99.90;;;;;;5121155;28;20470;-59
2023/06/08 03:46:35;;;;;;;19.83;17.70;;;14.50;1.00;;;;;;5121572;28;20836;-59
2023/06/08 03:49:02;;;;;;;21.60;17.67;;;14.50;1.00;;;;;;5121471;28;20464;-59
2023/06/08 03:51:29;;;;;;;21.90;16.53;;;14.50;99.90;;;;;;5120630;28;20493;-59
2023/06/08 03:53:56;;;;;;;22.33;18.30;;;14.50;99.90;;;;;;5120757;28;20455;-58
2023/06/08 03:56:24;;;;;;;21.17;16.27;;;14.50;99.90;;;;;;5120593;28;20465;-59
2023/06/08 03:58:52;;;;;;;26.47;18.03;;;14.50;99.90;;;;;;5120345;28;20464;-59
2023/06/08 04:01:22;;;;;;;25.07;17.43;;;14.50;1.00;;;;;;5120095;28;20458;-59
2023/06/08 04:03:49;;;;;;;19.10;17.27;;;14.50;1.00;;;;;;5120401;28;20467;-58
2023/06/08 04:06:18;;;;;;;23.10;18.60;;;14.50;1.00;;;;;;5120474;28;20463;-58
2023/06/08 04:08:45;;;;;;;20.90;17.07;;;14.50;28.40;;;;;;5120579;28;20549;-59
2023/06/08 04:11:13;;;;;;;26.47;18.40;;;14.40;99.90;;;;;;5120767;28;20463;-59
2023/06/08 04:13:40;;;;;;;20.27;17.77;;;14.40;99.90;;;;;;5120345;28;20498;-58
2023/06/08 04:16:10;;;;;;;22.87;18.63;;;14.40;99.90;;;;;;5120830;28;20463;-59
2023/06/08 04:18:39;;;;;;;21.53;18.20;;;14.40;1.00;;;;;;5120611;28;20466;-58
2023/06/08 04:21:06;;;;;;;21.57;17.47;;;14.40;1.00;;;;;;5120646;28;20462;-58
2023/06/08 04:23:34;;;;;;;18.73;16.83;;;14.40;99.90;;;;;;5120478;28;20470;-59
2023/06/08 04:26:02;;;;;;;21.67;16.90;;;14.40;99.90;;;;;;5120369;28;20463;-59
2023/06/08 04:28:30;;;;;;;26.03;18.37;;;14.40;99.90;;;;;;5120544;28;20880;-59
2023/06/08 04:30:58;;;;;;;19.93;16.60;;;14.50;1.00;;;;;;5119384;28;20573;-59
2023/06/08 04:33:27;;;;;;;20.80;16.70;;;14.50;1.00;;;;;;5119003;28;20586;-59
2023/06/08 04:35:54;;;;;;;25.13;19.13;;;14.50;1.00;;;;;;5120184;28;20459;-59
2023/06/08 04:38:22;;;;;;;18.70;16.80;;;14.50;99.90;;;;;;5120479;28;20935;-59
2023/06/08 04:40:49;;;;;;;18.77;16.77;;;14.50;1.00;;;;;;5120410;28;20460;-59
2023/06/08 04:43:17;;;;;;;23.50;17.37;;;14.50;99.90;;;;;;5120741;28;20746;-58
2023/06/08 04:45:45;;;;;;;22.00;18.33;;;14.50;99.90;;;;;;5119412;28;20463;-59
2023/06/08 04:48:13;;;;;;;21.80;17.53;;;14.60;99.90;;;;;;5120131;28;20750;-59
2023/06/08 04:50:45;;;;;;;22.73;17.10;;;14.60;99.90;;;;;;5120314;28;20553;-58
2023/06/08 04:53:14;;;;;;;18.23;16.03;;;14.70;99.90;;;;;;5120032;28;20487;-59
2023/06/08 04:55:45;;;;;;;20.50;17.47;;;14.70;1.00;;;;;;5119510;28;20462;-59
2023/06/08 04:58:13;;;;;;;19.90;16.97;;;14.70;99.90;;;;;;5120125;28;20944;-59
2023/06/08 05:00:40;;;;;;;20.00;16.70;;;14.80;1.00;;;;;;5120346;28;20459;-58
2023/06/08 05:03:07;;;;;;;20.13;16.50;;;14.80;99.90;;;;;;5119310;28;20934;-59
2023/06/08 05:05:34;;;;;;;20.07;15.80;;;14.80;99.90;;;;;;5120078;28;20460;-59
2023/06/08 05:08:03;;;;;;;22.53;16.27;;;14.90;99.90;;;;;;5119418;28;20465;-59
2023/06/08 05:10:30;;;;;;;20.13;16.00;;;14.90;1.00;;;;;;5119458;28;20463;-58
2023/06/08 05:12:58;;;;;;;20.30;17.00;;;14.90;1.00;;;;;;5119425;28;20487;-59
2023/06/08 05:15:25;;;;;;;20.73;18.60;;;15.00;1.00;;;;;;5119228;28;20463;-59
2023/06/08 05:17:53;;;;;;;20.00;16.60;;;15.00;99.90;;;;;;5119356;28;20517;-59
2023/06/08 05:20:22;;;;;;;23.10;16.43;;;15.00;10.40;;;;;;5119695;28;20470;-59
2023/06/08 05:22:49;;;;;;;18.47;16.00;;;15.00;99.90;;;;;;5119760;28;20833;-59
2023/06/08 05:25:17;;;;;;;18.47;16.00;;;15.00;1.00;;;;;;5119775;28;20466;-59
2023/06/08 05:27:45;;;;;;;18.80;16.63;;;15.10;1.00;;;;;;5119056;28;20763;-59
2023/06/08 05:30:13;;;;;;;23.07;16.93;;;15.20;1.00;;;;;;5119552;28;20508;-59
2023/06/08 05:32:40;;;;;;;19.20;16.43;;;15.20;99.90;;;;;;5114345;28;20510;-59
2023/06/08 05:35:07;;;;;;;19.80;17.13;;;15.30;99.90;;;;;;5117347;28;20467;-59
2023/06/08 05:37:35;;;;;;;21.13;16.60;;;15.40;6.00;;;;;;5118430;28;20464;-58
2023/06/08 05:40:02;;;;;;;20.23;16.13;;;15.60;1.00;;;;;;5118958;28;20562;-59
2023/06/08 05:42:31;;;;;;;18.90;15.73;;;15.70;41.90;;;;;;5117893;28;20463;-58
2023/06/08 05:44:58;;;;;;;20.23;14.77;;;16.00;99.90;;;;;;5116868;28;20741;-59
2023/06/08 05:47:25;;;;;;;16.33;14.43;;;16.10;1.00;;;;;;5117971;28;20448;-59
2023/06/08 05:49:52;;;;;;;21.70;16.77;;;16.20;99.90;;;;;;5118300;28;20456;-59
2023/06/08 05:52:19;;;;;;;17.97;16.10;;;16.40;1.00;;;;;;5118545;28;20487;-59
2023/06/08 05:54:46;;;;;;;18.47;14.70;;;16.60;1.00;;;;;;5118849;28;20487;-59
2023/06/08 05:57:14;;;;;;;16.10;13.87;;;16.90;99.90;;;;;;5118174;28;20749;-59
2023/06/08 05:59:43;;;;;;;16.43;13.20;;;17.00;99.90;;;;;;5118363;27;20470;-59
2023/06/08 06:02:10;;;;;;;15.60;13.83;;;17.20;99.90;;;;;;5118012;28;20932;-59
2023/06/08 06:04:37;;;;;;;14.37;12.87;;;17.40;99.90;;;;;;5118590;28;20463;-59
2023/06/08 06:07:06;;;;;;;15.80;13.90;;;17.70;1.00;;;;;;5118638;28;20856;-60
2023/06/08 06:09:33;;;;;;;18.70;12.97;;;17.90;1.00;;;;;;5118598;28;20452;-60
2023/06/08 06:12:01;;;;;;;16.83;13.03;;;18.10;1.00;;;;;;5117973;28;20833;-58
2023/06/08 06:14:29;;;;;;;15.53;14.03;;;18.20;1.00;;;;;;5118194;28;20491;-59
2023/06/08 06:16:57;;;;;;;14.13;12.73;;;18.20;1.00;;;;;;5118344;28;20460;-60
2023/06/08 06:19:24;;;;;;;14.30;12.20;;;18.60;12.90;;;;;;5117676;28;20466;-60
2023/06/08 06:21:51;;;;;;;15.33;12.60;;;18.70;1.00;;;;;;5117463;28;20456;-59
2023/06/08 06:24:19;;;;;;;13.93;12.53;;;18.80;1.00;;;;;;5117685;28;20458;-59
2023/06/08 06:26:46;;;;;;;14.87;13.30;;;19.00;99.90;;;;;;5117430;28;20460;-60
2023/06/08 06:29:14;;;;;;;13.60;12.23;;;19.00;1.00;;;;;;5117225;28;20452;-59
2023/06/08 06:31:41;;;;;;;14.30;12.17;;;19.30;1.00;;;;;;5117279;28;20466;-59
2023/06/08 06:34:09;;;;;;;13.70;12.30;;;19.50;99.90;;;;;;5117711;28;20498;-59
2023/06/08 06:36:36;;;;;;;13.53;12.33;;;19.60;1.00;;;;;;5118193;28;20455;-59
2023/06/08 06:39:04;;;;;;;14.60;12.70;;;19.90;99.90;;;;;;5118568;28;20452;-60
2023/06/08 06:41:31;;;;;;;14.60;13.20;;;20.20;99.90;;;;;;5116784;28;20470;-60
2023/06/08 06:43:58;;;;;;;12.83;11.53;;;20.50;99.90;;;;;;5116264;28;20452;-60
2023/06/08 06:46:26;;;;;;;13.03;11.80;;;20.70;50.10;;;;;;5113647;28;20467;-60
2023/06/08 06:48:53;;;;;;;12.63;11.30;;;20.90;54.70;;;;;;5115964;28;20478;-59
2023/06/08 06:51:21;;;;;;;12.53;11.23;;;20.90;1.00;;;;;;5115620;28;20476;-60
2023/06/08 06:53:49;;;;;;;13.37;12.07;;;20.70;99.90;;;;;;5115677;28;20487;-60
2023/06/08 06:56:16;;;;;;;12.47;10.63;;;20.90;1.00;;;;;;5117239;28;20470;-59
2023/06/08 06:58:44;;;;;;;13.00;11.67;;;20.90;1.00;;;;;;5118026;28;20471;-59
2023/06/08 07:01:12;;;;;;;11.43;10.33;;;21.30;32.30;;;;;;5117857;28;20462;-58
2023/06/08 07:03:42;;;;;;;12.90;11.67;;;21.50;99.90;;;;;;5117334;28;20508;-60
2023/06/08 07:06:10;;;;;;;12.20;11.00;;;21.50;1.00;;;;;;5117754;28;20884;-60
2023/06/08 07:08:39;;;;;;;13.23;11.93;;;21.50;99.90;;;;;;5117878;28;20459;-58
2023/06/08 07:11:06;;;;;;;12.30;11.20;;;21.50;99.90;;;;;;5117794;28;20466;-58
2023/06/08 07:13:33;;;;;;;12.23;10.93;;;21.40;99.90;;;;;;5117712;28;20992;-58
2023/06/08 07:16:03;;;;;;;11.57;10.50;;;21.60;99.90;;;;;;5117732;28;20495;-59
2023/06/08 07:18:30;;;;;;;13.67;10.77;;;21.80;99.90;;;;;;5117818;28;20868;-61
2023/06/08 07:20:58;;;;;;;12.37;10.70;;;21.80;99.90;;;;;;5117370;28;20505;-61
2023/06/08 07:23:25;;;;;;;11.67;10.57;;;22.20;1.00;;;;;;5117474;28;20467;-61
2023/06/08 07:25:54;;;;;;;12.37;11.10;;;22.60;1.00;;;;;;5117894;28;20476;-64
2023/06/08 07:28:21;;;;;;;11.77;10.03;;;22.70;99.90;;;;;;5119017;28;20462;-64
2023/06/08 07:30:48;;;;;;;12.20;11.10;;;22.50;99.90;;;;;;5117931;28;20479;-63
2023/06/08 07:33:16;;;;;;;10.77;9.77;;;22.00;99.90;;;;;;5118346;28;20491;-64
2023/06/08 07:35:44;;;;;;;12.10;11.03;;;22.30;99.90;;;;;;5118961;28;20490;-65
2023/06/08 07:38:11;;;;;;;13.80;11.27;;;22.80;99.90;;;;;;5118857;28;20498;-64
2023/06/08 07:40:38;;;;;;;12.20;11.07;;;23.10;99.90;;;;;;5118036;28;20903;-63
2023/06/08 07:43:07;;;;;;;18.07;10.80;;;22.50;1.00;;;;;;5122097;28;20509;-65
2023/06/08 07:45:34;;;;;;;10.20;9.30;;;22.90;99.90;;;;;;5117096;28;20448;-65
2023/06/08 07:48:01;;;;;;;12.43;10.23;;;23.40;99.90;;;;;;5116421;28;20458;-61
2023/06/08 07:50:28;;;;;;;10.20;9.20;;;22.90;1.00;;;;;;5114283;28;20550;-64
2023/06/08 07:52:55;;;;;;;10.43;9.50;;;22.90;99.90;;;;;;5116823;28;20479;-63
2023/06/08 07:55:23;;;;;;;10.63;9.60;;;22.90;99.90;;;;;;5116993;28;20765;-59
2023/06/08 07:57:50;;;;;;;11.93;10.83;;;23.00;99.90;;;;;;5117444;28;20499;-63
2023/06/08 08:00:21;;;;;;;10.47;9.47;;;23.20;91.00;;;;;;5117687;28;20463;-64
2023/06/08 08:02:48;;;;;;;10.33;9.53;;;23.70;5.70;;;;;;5117319;28;20785;-66
2023/06/08 08:05:15;;;;;;;10.30;9.30;;;24.20;1.00;;;;;;5118040;28;20456;-61
2023/06/08 08:07:43;;;;;;;11.57;10.37;;;24.40;1.00;;;;;;5118209;28;20486;-63
2023/06/08 08:10:11;;;;;;;9.83;8.93;;;23.30;1.00;;;;;;5120591;28;20922;-67
2023/06/08 08:12:38;;;;;;;10.80;9.80;;;23.90;1.00;;;;;;5122286;28;20481;-66
2023/06/08 08:15:06;;;;;;;12.70;9.77;;;24.20;1.00;;;;;;5121185;28;20466;-67
2023/06/08 08:17:35;;;;;;;10.53;9.53;;;24.60;1.00;;;;;;5120444;28;20501;-67
2023/06/08 08:20:04;;;;;;;11.53;9.87;;;24.80;1.00;;;;;;5121630;28;20820;-63
2023/06/08 08:22:32;;;;;;;11.10;10.10;;;25.00;1.00;;;;;;5121778;28;20782;-67
2023/06/08 08:25:00;;;;;;;10.67;9.63;;;24.80;1.00;;;;;;5118872;28;20467;-66
2023/06/08 08:27:27;;;;;;;10.60;9.60;;;25.00;1.00;;;;;;5120605;28;20452;-67
2023/06/08 08:29:54;;;;;;;12.10;9.77;;;25.30;1.00;;;;;;5120823;28;20465;-66
2023/06/08 08:32:21;;;;;;;10.97;9.87;;;25.20;1.00;;;;;;5120814;28;20466;-65
2023/06/08 08:34:50;;;;;;;11.23;10.17;;;25.40;1.00;;;;;;5120908;28;20936;-66
2023/06/08 08:37:18;;;;;;;10.53;9.63;;;25.30;1.00;;;;;;5118657;28;20908;-65
2023/06/08 08:39:45;;;;;;;11.07;10.00;;;25.50;1.00;;;;;;5102568;28;20476;-64
2023/06/08 08:42:17;;;;;;;10.03;9.10;;;25.30;1.00;;;;;;5114310;28;20463;-65
2023/06/08 08:44:47;;;;;;;10.27;9.40;;;25.30;1.00;;;;;;5124820;28;20750;-66
2023/06/08 08:47:14;;;;;;;11.10;9.90;;;25.80;1.00;;;;;;5121164;28;20513;-62
2023/06/08 08:49:44;;;;;;;10.57;9.57;;;26.10;1.00;;;;;;5120913;28;20461;-65
2023/06/08 08:52:13;;;;;;;11.47;9.80;;;26.40;1.00;;;;;;5124781;28;20481;-65
2023/06/08 08:54:42;;;;;;;10.37;9.50;;;27.00;1.00;;;;;;5123093;28;20517;-66
2023/06/08 08:57:10;;;;;;;10.60;9.47;;;26.90;1.00;;;;;;5121517;28;20475;-65
2023/06/08 08:59:37;;;;;;;12.17;9.20;;;26.80;1.00;;;;;;5126464;28;20455;-63
2023/06/08 09:02:06;;;;;;;11.27;10.30;;;26.90;1.00;;;;;;5127097;28;20586;-63
2023/06/08 09:04:33;;;;;;;11.30;10.30;;;26.30;1.00;;;;;;5127859;28;20959;-64
2023/06/08 09:07:00;;;;;;;9.07;8.33;;;26.30;1.00;;;;;;5130052;28;20463;-63
2023/06/08 09:09:29;;;;;;;10.60;9.50;;;26.00;1.00;;;;;;5129912;28;20891;-64
2023/06/08 09:11:58;;;;;;;10.50;9.60;;;26.50;1.00;;;;;;5125095;28;20455;-63
2023/06/08 09:14:25;;;;;;;10.27;9.47;;;26.20;1.00;;;;;;5122164;28;20491;-64
2023/06/08 09:16:53;;;;;;;11.87;10.43;;;26.30;1.00;;;;;;5118977;28;21043;-65
2023/06/08 09:19:23;;;;;;;11.53;10.50;;;27.00;1.00;;;;;;5123789;28;20447;-64
2023/06/08 09:21:50;;;;;;;10.83;9.93;;;27.50;1.00;;;;;;5125986;28;20456;-64
2023/06/08 09:24:19;;;;;;;10.53;9.60;;;27.60;1.00;;;;;;5125919;28;20466;-62
2023/06/08 09:26:50;;;;;;;10.07;9.07;;;27.50;1.00;;;;;;5123775;28;20463;-64
2023/06/08 09:29:36;;;;;;;10.67;9.70;;;27.70;5.10;;;;;;5124362;28;20455;-62
2023/06/08 09:32:04;;;;;;;10.40;9.40;;;27.90;1.00;;;;;;5123484;28;20491;-63
2023/06/08 09:34:33;;;;;;;10.30;9.37;;;27.20;1.00;;;;;;5124051;28;20487;-61
2023/06/08 09:37:07;;;;;;;9.93;8.30;;;26.50;1.00;;;;;;5124162;28;20459;-64
2023/06/08 09:39:42;;;;;;;9.87;8.80;;;27.10;1.00;;;;;;5125000;28;20455;-70
2023/06/08 09:42:11;;;;;;;9.47;8.67;;;27.70;1.00;;;;;;5126820;28;20523;-65
2023/06/08 09:44:38;;;;;;;11.93;9.50;;;28.10;1.00;;;;;;5122797;28;20522;-62
2023/06/08 09:47:23;;;;;;;9.40;8.50;;;27.70;1.00;;;;;;5124115;28;20550;-63
2023/06/08 09:49:51;;;;;;;10.50;9.70;;;28.00;1.00;;;;;;5124412;28;20459;-62
2023/06/08 09:52:21;;;;;;;10.23;9.33;;;28.00;1.00;;;;;;5126021;28;20463;-64
2023/06/08 09:54:49;;;;;;;10.90;9.80;;;28.10;1.00;;;;;;5128522;28;20540;-64
2023/06/08 09:57:20;;;;;;;10.27;8.30;;;28.70;1.00;;;;;;5122974;28;20455;-64
2023/06/08 09:59:54;;;;;;;9.43;8.60;;;29.10;1.00;;;;;;5118333;28;20761;-66
2023/06/08 10:02:28;;;;;;;11.00;9.97;;;29.10;1.00;;;;;;5122117;28;20535;-64
2023/06/08 10:05:00;;;;;;;11.50;10.40;;;29.30;1.00;;;;;;5112557;28;20528;-62
2023/06/08 10:07:33;;;;;;;10.83;9.73;;;28.50;1.00;;;;;;5118877;28;20456;-64
2023/06/08 10:10:11;;;;;;;11.20;10.10;;;28.60;1.00;;;;;;5118548;28;20460;-64
2023/06/08 10:12:40;;;;;;;10.17;9.27;;;28.70;1.00;;;;;;5120821;28;20466;-63
2023/06/08 10:15:09;;;;;;;10.17;9.23;;;29.00;1.00;;;;;;5117353;28;20483;-62
2023/06/08 10:17:37;;;;;;;10.60;9.67;;;28.70;1.00;;;;;;5117419;28;20513;-63
2023/06/08 10:20:06;;;;;;;11.47;9.70;;;28.90;1.00;;;;;;5117943;28;20459;-63
2023/06/08 10:22:35;;;;;;;11.27;10.30;;;28.90;1.00;;;;;;5120101;28;20456;-63
2023/06/08 10:25:04;;;;;;;10.40;9.37;;;28.70;1.00;;;;;;5121246;28;20465;-68
2023/06/08 10:27:33;;;;;;;10.97;9.97;;;28.90;1.00;;;;;;5120940;28;20463;-65
2023/06/08 10:30:03;;;;;;;9.50;8.57;;;29.30;1.00;;;;;;5118905;28;20463;-64
2023/06/08 10:32:32;;;;;;;11.23;10.33;;;30.00;1.00;;;;;;5120829;28;20470;-65
2023/06/08 10:35:02;;;;;;;10.50;9.60;;;30.10;1.00;;;;;;5121151;28;20491;-63
2023/06/08 10:37:31;;;;;;;9.53;8.57;;;30.10;1.00;;;;;;5121770;28;20798;-62
2023/06/08 10:39:59;;;;;;;9.93;9.13;;;30.40;1.00;;;;;;5120701;28;20487;-62
2023/06/08 10:42:26;;;;;;;10.40;9.50;;;30.50;1.00;;;;;;5120352;28;20517;-65
2023/06/08 10:44:55;;;;;;;10.47;9.57;;;30.60;1.00;;;;;;5124203;28;20550;-62
2023/06/08 10:47:24;;;;;;;9.90;9.00;;;30.60;1.00;;;;;;5122598;28;20459;-62
2023/06/08 10:50:01;;;;;;;10.67;9.70;;;30.10;1.00;;;;;;5116640;28;20473;-62
2023/06/08 10:52:29;;;;;;;8.80;8.10;;;29.00;1.00;;;;;;5114726;28;20545;-61
2023/06/08 10:54:59;;;;;;;9.10;8.30;;;28.90;1.00;;;;;;5117290;28;20617;-66
2023/06/08 10:57:40;;;;;;;9.43;8.63;;;28.90;99.90;;;;;;5116873;28;20515;-64
2023/06/08 11:00:42;;;;;;;10.10;9.20;;;29.60;99.90;;;;;;5114873;28;20539;-63
2023/06/08 11:03:21;;;;;;;11.03;9.87;;;30.00;99.90;;;;;;5110411;28;20482;-61
2023/06/08 11:05:53;;;;;;;9.80;8.93;;;29.80;99.90;;;;;;5116749;28;20553;-62
2023/06/08 11:08:21;;;;;;;10.60;9.80;;;28.40;99.90;;;;;;5114410;28;20979;-65
2023/06/08 11:10:55;;;;;;;9.40;8.60;;;29.30;99.90;;;;;;5116136;28;20553;-63
2023/06/08 11:13:23;;;;;;;10.00;9.10;;;30.10;99.90;;;;;;5097384;28;20451;-63
2023/06/08 11:15:51;;;;;;;10.90;9.90;;;30.30;99.90;;;;;;5115312;28;20433;-64
2023/06/08 11:18:20;;;;;;;9.33;8.50;;;30.30;99.90;;;;;;5114931;28;21017;-60
2023/06/08 11:20:48;;;;;;;10.73;9.70;;;30.60;99.90;;;;;;5118296;28;20459;-63
2023/06/08 11:23:15;;;;;;;10.93;10.13;;;29.90;99.90;;;;;;5118532;28;20534;-64
2023/06/08 11:25:45;;;;;;;9.57;8.80;;;29.90;99.90;;;;;;5119510;28;20549;-64
2023/06/08 11:28:13;;;;;;;9.77;9.07;;;30.60;99.90;;;;;;5117954;28;20739;-62
2023/06/08 11:30:40;;;;;;;9.87;9.00;;;30.20;99.90;;;;;;5119349;28;20561;-62
2023/06/08 11:33:09;;;;;;;11.63;9.57;;;29.10;99.90;;;;;;5119297;28;20536;-62
2023/06/08 11:35:37;;;;;;;10.00;9.27;;;29.20;99.90;;;;;;5113404;28;20610;-63
2023/06/08 11:38:05;;;;;;;10.10;9.00;;;29.00;99.90;;;;;;5115742;28;20474;-60
2023/06/08 11:40:34;;;;;;;10.43;9.63;;;29.10;99.90;;;;;;5115990;28;20546;-61
2023/06/08 11:43:01;;;;;;;9.90;9.10;;;29.30;99.90;;;;;;5105483;28;20496;-61
2023/06/08 11:45:30;;;;;;;10.63;9.70;;;29.40;99.90;;;;;;5112252;28;20772;-63
2023/06/08 11:47:58;;;;;;;9.40;8.13;;;28.50;99.90;;;;;;5119814;28;20830;-64
2023/06/08 11:50:25;;;;;;;10.57;9.70;;;28.80;99.90;;;;;;5119734;28;20469;-61
2023/06/08 11:52:55;;;;;;;10.00;9.20;;;29.00;99.90;;;;;;5126952;28;20462;-64
2023/06/08 11:55:24;;;;;;;12.67;10.50;;;29.00;99.90;;;;;;5112982;28;20492;-62
2023/06/08 11:57:56;;;;;;;9.47;8.77;;;29.00;99.90;;;;;;5115047;28;20460;-62
2023/06/08 12:00:26;;;;;;;9.27;8.57;;;29.20;99.90;;;;;;5124870;28;20462;-62
2023/06/08 12:02:55;;;;;;;10.77;9.83;;;28.70;99.90;;;;;;5123251;28;20585;-62
2023/06/08 12:05:25;;;;;;;10.23;9.40;;;27.90;99.90;;;;;;5125778;28;20459;-59
2023/06/08 12:07:58;;;;;;;10.03;9.27;;;28.40;99.90;;;;;;5124300;28;20467;-63
2023/06/08 12:10:32;;;;;;;10.63;9.57;;;28.70;99.90;;;;;;5125788;28;20551;-61
2023/06/08 12:13:01;;;;;;;10.80;9.83;;;29.10;99.90;;;;;;5123516;28;20455;-63
2023/06/08 12:15:28;;;;;;;10.30;9.40;;;29.60;99.90;;;;;;5124419;28;20546;-62
2023/06/08 12:18:02;;;;;;;9.23;8.30;;;29.90;99.90;;;;;;5124365;28;20463;-65
2023/06/08 12:20:35;;;;;;;9.63;8.73;;;30.50;99.90;;;;;;5112718;28;20563;-61
2023/06/08 12:23:05;;;;;;;9.50;8.80;;;30.20;99.90;;;;;;5121432;28;20486;-64
2023/06/08 12:25:33;;;;;;;8.40;7.70;;;29.90;99.90;;;;;;5125947;28;20554;-62
2023/06/08 12:28:01;;;;;;;9.80;8.90;;;29.50;99.90;;;;;;5125411;28;20455;-63
2023/06/08 12:30:28;;;;;;;9.87;9.07;;;29.60;99.90;;;;;;5124270;28;20460;-63
2023/06/08 12:32:56;;;;;;;9.90;9.10;;;29.30;99.90;;;;;;5123574;28;20455;-60
2023/06/08 12:35:24;;;;;;;9.23;8.50;;;29.00;99.90;;;;;;5119225;28;20652;-62
2023/06/08 12:37:52;;;;;;;8.97;8.17;;;28.30;99.90;;;;;;5117295;28;20483;-65
2023/06/08 12:40:21;;;;;;;8.83;8.17;;;27.70;99.90;;;;;;5117468;28;20452;-65
2023/06/08 12:42:50;;;;;;;9.80;9.10;;;27.40;99.90;;;;;;5117753;28;20783;-64
2023/06/08 12:45:18;;;;;;;9.93;9.03;;;26.70;99.90;;;;;;5115440;28;20464;-64